createdAt,value
2022-10-20T00:00:13.677Z,85.94
2022-10-20T00:02:35.350Z,86.52
2022-10-20T00:04:57.029Z,86.08
2022-10-20T00:07:18.530Z,86.63
2022-10-20T00:09:40.032Z,88.17
2022-10-20T00:12:01.550Z,89.36
2022-10-20T00:14:23.113Z,89.66
2022-10-20T00:16:44.628Z,89.57
2022-10-20T00:19:06.260Z,90.41
2022-10-20T00:21:28.983Z,90.68
2022-10-20T00:23:51.555Z,90.88
2022-10-20T00:26:16.564Z,91.28
2022-10-20T00:28:38.076Z,90.69
2022-10-20T00:30:59.998Z,90.13
2022-10-20T00:33:21.466Z,90.74
2022-10-20T00:35:42.945Z,91.04
2022-10-20T00:38:04.416Z,90.61
2022-10-20T00:40:26.389Z,90.25
2022-10-20T00:42:48.715Z,89.22
2022-10-20T00:45:14.726Z,88.98
2022-10-20T00:47:59.676Z,88.76
2022-10-20T00:50:32.975Z,87.81
2022-10-20T00:52:55.935Z,87.92
2022-10-20T00:55:22.941Z,88.00
2022-10-20T00:57:48.105Z,87.84
2022-10-20T01:00:10.293Z,89.15
2022-10-20T01:02:32.286Z,88.42
2022-10-20T01:04:54.285Z,88.37
2022-10-20T01:07:15.814Z,88.63
2022-10-20T01:09:39.133Z,88.92
2022-10-20T01:12:27.927Z,90.59
2022-10-20T01:14:58.255Z,89.98
2022-10-20T01:17:43.909Z,90.35
2022-10-20T01:20:50.391Z,91.13
2022-10-20T01:23:42.599Z,91.71
2022-10-20T01:26:38.242Z,91.31
2022-10-20T01:29:19.881Z,91.35
2022-10-20T01:31:53.451Z,91.51
2022-10-20T01:34:41.125Z,91.41
2022-10-20T01:37:06.647Z,91.17
2022-10-20T01:39:49.614Z,89.72
2022-10-20T01:42:20.672Z,89.94
2022-10-20T01:44:44.435Z,89.81
2022-10-20T01:47:08.531Z,89.47
2022-10-20T01:49:30.061Z,88.32
2022-10-20T01:51:51.809Z,90.27
2022-10-20T01:54:32.345Z,91.33
2022-10-20T01:57:13.439Z,92.19
2022-10-20T01:59:56.374Z,91.30
2022-10-20T02:02:41.632Z,92.84
2022-10-20T02:05:24.265Z,93.01
2022-10-20T02:07:45.807Z,92.93
2022-10-20T02:10:19.749Z,92.93
2022-10-20T02:12:45.395Z,93.36
2022-10-20T02:15:09.186Z,92.51
2022-10-20T02:17:32.340Z,92.26
2022-10-20T02:19:54.169Z,91.94
2022-10-20T02:22:17.580Z,91.86
2022-10-20T02:24:41.312Z,91.61
2022-10-20T02:27:14.279Z,91.30
2022-10-20T02:29:44.672Z,90.38
2022-10-20T02:32:07.933Z,90.33
2022-10-20T02:34:29.479Z,90.25
2022-10-20T02:36:51.096Z,90.92
2022-10-20T02:39:13.026Z,90.60
2022-10-20T02:41:34.529Z,91.27
2022-10-20T02:43:55.990Z,91.48
2022-10-20T02:46:17.635Z,91.43
2022-10-20T02:48:39.310Z,91.10
2022-10-20T02:51:01.022Z,90.99
2022-10-20T02:53:22.618Z,91.71
2022-10-20T02:55:44.115Z,92.63
2022-10-20T02:58:05.667Z,92.89
2022-10-20T03:00:31.051Z,92.59
2022-10-20T03:02:52.540Z,93.56
2022-10-20T03:05:14.695Z,93.28
2022-10-20T03:07:36.388Z,93.03
2022-10-20T03:09:58.255Z,93.01
2022-10-20T03:12:19.743Z,93.49
2022-10-20T03:14:42.927Z,93.35
2022-10-20T03:17:04.578Z,93.70
2022-10-20T03:19:26.165Z,94.06
2022-10-20T03:21:48.918Z,94.66
2022-10-20T03:24:10.415Z,93.69
2022-10-20T03:26:32.051Z,93.83
2022-10-20T03:28:53.568Z,93.55
2022-10-20T03:31:15.077Z,92.73
2022-10-20T03:33:36.643Z,92.96
2022-10-20T03:35:58.138Z,92.30
2022-10-20T03:38:19.978Z,93.08
2022-10-20T03:40:41.535Z,92.07
2022-10-20T03:43:03.020Z,92.40
2022-10-20T03:45:24.510Z,91.69
2022-10-20T03:47:45.980Z,91.15
2022-10-20T03:50:07.794Z,90.42
2022-10-20T03:52:29.281Z,88.89
2022-10-20T03:54:51.083Z,89.77
2022-10-20T03:57:12.545Z,90.26
2022-10-20T03:59:34.111Z,91.08
2022-10-20T04:01:55.668Z,90.73
2022-10-20T04:04:17.203Z,91.05
2022-10-20T04:06:38.744Z,90.69
2022-10-20T04:09:00.347Z,90.60
2022-10-20T04:11:21.963Z,90.08
2022-10-20T04:13:43.453Z,90.58
2022-10-20T04:16:05.223Z,90.28
2022-10-20T04:18:26.689Z,89.18
2022-10-20T04:20:48.715Z,89.47
2022-10-20T04:23:10.219Z,89.82
2022-10-20T04:25:31.746Z,90.33
2022-10-20T04:27:53.233Z,90.10
2022-10-20T04:30:14.818Z,89.95
2022-10-20T04:32:36.306Z,88.81
2022-10-20T04:34:57.899Z,88.84
2022-10-20T04:37:19.392Z,87.77
2022-10-20T04:39:41.025Z,87.73
2022-10-20T04:42:02.501Z,86.39
2022-10-20T04:44:24.089Z,86.66
2022-10-20T04:46:45.583Z,87.29
2022-10-20T04:49:07.110Z,87.26
2022-10-20T04:51:28.636Z,86.41
2022-10-20T04:53:50.134Z,85.82
2022-10-20T04:56:18.433Z,86.16
2022-10-20T04:58:40.040Z,86.03
2022-10-20T05:01:08.240Z,86.80
2022-10-20T05:03:30.069Z,86.38
2022-10-20T05:05:51.550Z,85.24
2022-10-20T05:08:13.130Z,85.77
2022-10-20T05:10:36.676Z,85.35
2022-10-20T05:12:58.409Z,84.78
2022-10-20T05:15:19.902Z,85.00
2022-10-20T05:17:41.446Z,85.68
2022-10-20T05:20:03.183Z,86.18
2022-10-20T05:22:24.721Z,85.95
2022-10-20T05:24:46.184Z,86.60
2022-10-20T05:27:07.658Z,87.91
2022-10-20T05:29:29.279Z,88.49
2022-10-20T05:31:50.914Z,89.00
2022-10-20T05:34:12.613Z,89.04
2022-10-20T05:36:34.395Z,89.31
2022-10-20T05:38:56.311Z,90.38
2022-10-20T05:41:20.577Z,89.41
2022-10-20T05:43:42.130Z,88.80
2022-10-20T05:46:04.602Z,89.28
2022-10-20T05:48:26.089Z,89.66
2022-10-20T05:50:47.589Z,90.13
2022-10-20T05:53:09.139Z,89.58
2022-10-20T05:55:30.634Z,89.42
2022-10-20T05:57:52.279Z,89.52
2022-10-20T06:00:15.840Z,89.71
2022-10-20T06:02:37.913Z,90.20
2022-10-20T06:04:59.704Z,90.37
2022-10-20T06:07:21.187Z,90.44
2022-10-20T06:09:42.695Z,89.89
2022-10-20T06:12:05.291Z,90.50
2022-10-20T06:14:27.447Z,90.36
2022-10-20T06:16:53.100Z,90.03
2022-10-20T06:19:14.682Z,89.99
2022-10-20T06:21:37.500Z,90.14
2022-10-20T06:23:59.977Z,89.82
2022-10-20T06:26:23.958Z,89.31
2022-10-20T06:28:47.616Z,89.41
2022-10-20T06:31:21.101Z,90.18
2022-10-20T06:33:43.856Z,90.11
2022-10-20T06:36:05.611Z,90.12
2022-10-20T06:38:27.816Z,89.64
2022-10-20T06:40:49.289Z,88.79
2022-10-20T06:43:10.813Z,89.46
2022-10-20T06:45:32.308Z,89.74
2022-10-20T06:47:53.822Z,89.66
2022-10-20T06:50:15.356Z,89.33
2022-10-20T06:52:37.090Z,88.96
2022-10-20T06:54:58.880Z,89.15
2022-10-20T06:57:20.414Z,88.88
2022-10-20T06:59:41.903Z,88.21
2022-10-20T07:02:03.441Z,88.11
2022-10-20T07:04:25.021Z,88.38
2022-10-20T07:06:47.170Z,88.79
2022-10-20T07:09:12.574Z,88.34
2022-10-20T07:11:35.351Z,88.29
2022-10-20T07:14:00.830Z,88.23
2022-10-20T07:16:24.388Z,88.13
2022-10-20T07:18:46.726Z,87.93
2022-10-20T07:21:11.633Z,88.57
2022-10-20T07:23:34.726Z,88.97
2022-10-20T07:26:12.761Z,88.87
2022-10-20T07:28:35.307Z,88.31
2022-10-20T07:30:56.817Z,88.55
2022-10-20T07:33:18.303Z,88.07
2022-10-20T07:35:39.770Z,87.42
2022-10-20T07:38:01.552Z,87.30
2022-10-20T07:42:49.547Z,87.94
2022-10-20T07:45:11.167Z,87.58
2022-10-20T07:47:36.691Z,86.85
2022-10-20T07:50:00.767Z,86.28
2022-10-20T07:52:22.255Z,86.02
2022-10-20T07:54:44.086Z,85.53
2022-10-20T07:57:05.595Z,85.84
2022-10-20T07:59:27.211Z,86.09
2022-10-20T08:01:48.845Z,86.05
2022-10-20T08:04:10.389Z,85.87
2022-10-20T08:06:31.989Z,85.24
2022-10-20T08:08:53.957Z,85.10
2022-10-20T08:11:15.900Z,84.77
2022-10-20T08:13:39.591Z,83.13
2022-10-20T08:16:01.759Z,83.40
2022-10-20T08:18:28.262Z,82.81
2022-10-20T08:20:49.967Z,82.19
2022-10-20T08:23:15.543Z,81.20
2022-10-20T08:25:37.055Z,81.79
2022-10-20T08:30:25.132Z,80.86
2022-10-20T08:32:50.982Z,81.59
2022-10-20T08:35:12.449Z,81.41
2022-10-20T08:37:36.616Z,81.12
2022-10-20T08:39:58.405Z,80.25
2022-10-20T08:42:19.953Z,78.98
2022-10-20T08:44:46.436Z,79.23
2022-10-20T08:47:38.536Z,78.53
2022-10-20T08:50:01.071Z,79.09
2022-10-20T08:52:25.240Z,79.21
2022-10-20T08:54:50.994Z,78.92
2022-10-20T08:57:22.851Z,77.77
2022-10-20T08:59:44.375Z,76.80
2022-10-20T09:02:15.776Z,76.66
2022-10-20T09:07:20.537Z,76.97
2022-10-20T09:09:42.136Z,77.74
2022-10-20T09:12:06.981Z,78.29
2022-10-20T09:14:32.464Z,78.02
2022-10-20T09:17:00.262Z,78.06
2022-10-20T09:19:23.359Z,76.51
2022-10-20T09:21:47.690Z,75.68
2022-10-20T09:24:09.335Z,76.35
2022-10-20T09:26:57.962Z,76.71
2022-10-20T09:29:22.126Z,76.10
2022-10-20T09:31:53.243Z,76.68
2022-10-20T09:34:31.491Z,77.14
2022-10-20T09:37:12.184Z,76.33
2022-10-20T09:39:56.489Z,75.54
2022-10-20T09:42:25.783Z,74.50
2022-10-20T09:44:52.261Z,76.38
2022-10-20T09:47:15.978Z,74.88
2022-10-20T09:49:39.564Z,73.57
2022-10-20T09:52:04.439Z,74.62
2022-10-20T09:54:27.158Z,73.32
2022-10-20T09:56:49.640Z,72.98
2022-10-20T09:59:25.131Z,72.77
2022-10-20T10:01:56.175Z,72.03
2022-10-20T10:04:48.229Z,71.70
2022-10-20T10:07:24.724Z,70.68
2022-10-20T10:09:55.635Z,68.77
2022-10-20T10:12:19.704Z,69.49
2022-10-20T10:14:54.195Z,69.47
2022-10-20T10:17:33.921Z,71.12
2022-10-20T10:19:56.456Z,70.67
2022-10-20T10:22:19.401Z,68.84
2022-10-20T10:24:48.496Z,68.69
2022-10-20T10:27:39.259Z,69.23
2022-10-20T10:30:22.461Z,67.93
2022-10-20T10:32:45.563Z,69.47
2022-10-20T10:35:24.519Z,67.75
2022-10-20T10:37:47.123Z,65.63
2022-10-20T10:40:16.218Z,64.77
2022-10-20T10:42:56.577Z,65.35
2022-10-20T10:45:31.517Z,66.07
2022-10-20T10:48:18.879Z,64.81
2022-10-20T10:50:48.738Z,66.18
2022-10-20T10:53:19.941Z,63.10
2022-10-20T10:55:54.712Z,63.12
2022-10-20T10:58:25.131Z,63.29
2022-10-20T11:01:01.325Z,61.11
2022-10-20T11:03:44.420Z,61.50
2022-10-20T11:06:19.050Z,59.97
2022-10-20T11:08:52.218Z,58.85
2022-10-20T11:11:52.205Z,59.92
2022-10-20T11:15:04.779Z,57.87
2022-10-20T11:17:35.679Z,58.06
2022-10-20T11:20:24.117Z,58.10
2022-10-20T11:23:05.636Z,58.18
2022-10-20T11:25:57.310Z,57.96
2022-10-20T11:28:31.536Z,56.22
2022-10-20T11:30:53.594Z,55.83
2022-10-20T11:33:20.925Z,56.24
2022-10-20T11:35:54.392Z,56.83
2022-10-20T11:38:23.850Z,57.99
2022-10-20T11:40:57.718Z,57.23
2022-10-20T11:43:36.075Z,57.21
2022-10-20T11:46:03.012Z,55.27
2022-10-20T11:48:40.611Z,53.73
2022-10-20T11:51:10.966Z,53.25
2022-10-20T11:54:01.682Z,53.53
2022-10-20T11:56:35.139Z,52.33
2022-10-20T11:59:24.180Z,53.03
2022-10-20T12:02:35.952Z,53.32
2022-10-20T12:05:39.006Z,53.03
2022-10-20T12:08:28.708Z,53.25
2022-10-20T12:10:57.176Z,53.40
2022-10-20T12:13:43.757Z,54.24
2022-10-20T12:16:05.542Z,53.67
2022-10-20T12:18:27.556Z,54.08
2022-10-20T12:20:55.128Z,54.11
2022-10-20T12:23:45.312Z,54.68
2022-10-20T12:26:29.838Z,54.23
2022-10-20T12:28:51.342Z,54.46
2022-10-20T12:31:12.783Z,53.88
2022-10-20T12:33:42.413Z,54.35
2022-10-20T12:36:14.807Z,55.80
2022-10-20T12:38:36.353Z,55.10
2022-10-20T12:41:00.203Z,55.32
2022-10-20T12:43:29.185Z,55.93
2022-10-20T12:45:51.369Z,55.51
2022-10-20T12:48:22.623Z,55.39
2022-10-20T12:50:47.024Z,57.61
2022-10-20T12:53:17.650Z,58.02
2022-10-20T12:55:42.135Z,59.46
2022-10-20T12:58:16.891Z,60.34
2022-10-20T13:00:38.330Z,61.28
2022-10-20T13:03:02.623Z,60.69
2022-10-20T13:05:29.413Z,62.46
2022-10-20T13:07:56.759Z,62.58
2022-10-20T13:10:27.264Z,62.92
2022-10-20T13:12:48.805Z,62.38
2022-10-20T13:15:13.946Z,62.98
2022-10-20T13:17:51.220Z,62.84
2022-10-20T13:20:24.287Z,62.93
2022-10-20T13:22:49.550Z,63.44
2022-10-20T13:25:29.484Z,63.44
2022-10-20T13:27:51.124Z,63.94
2022-10-20T13:30:20.394Z,65.16
2022-10-20T13:33:18.249Z,66.10
2022-10-20T13:35:46.722Z,66.81
2022-10-20T13:38:38.397Z,65.95
2022-10-20T13:41:16.694Z,66.85
2022-10-20T13:43:47.146Z,68.13
2022-10-20T13:46:18.964Z,69.67
2022-10-20T13:49:05.850Z,70.16
2022-10-20T13:51:32.429Z,72.89
2022-10-20T13:53:57.474Z,71.65
2022-10-20T13:56:26.149Z,71.96
2022-10-20T13:59:18.926Z,71.21
2022-10-20T14:01:47.470Z,71.06
2022-10-20T14:04:25.519Z,69.52
2022-10-20T14:06:47.324Z,68.15
2022-10-20T14:09:16.608Z,67.49
2022-10-20T14:11:39.519Z,67.38
2022-10-20T14:14:01.827Z,66.98
2022-10-20T14:16:27.926Z,66.51
2022-10-20T14:19:13.227Z,64.57
2022-10-20T14:21:50.789Z,65.44
2022-10-20T14:24:17.239Z,64.92
2022-10-20T14:26:44.055Z,64.63
2022-10-20T14:29:05.754Z,64.28
2022-10-20T14:31:27.599Z,63.77
2022-10-20T14:33:51.397Z,63.53
2022-10-20T14:36:33.152Z,63.22
2022-10-20T14:38:58.682Z,63.99
2022-10-20T14:41:33.801Z,64.63
2022-10-20T14:44:13.642Z,64.71
2022-10-20T14:46:46.780Z,64.11
2022-10-20T14:49:26.984Z,64.66
2022-10-20T14:51:57.496Z,65.10
2022-10-20T14:54:37.533Z,65.67
2022-10-20T14:57:02.113Z,66.21
2022-10-20T14:59:29.212Z,67.59
2022-10-20T15:02:12.192Z,67.96
2022-10-20T15:04:36.183Z,68.15
2022-10-20T15:07:26.900Z,67.94
2022-10-20T15:09:48.337Z,70.12
2022-10-20T15:12:21.075Z,69.49
2022-10-20T15:14:46.812Z,68.85
2022-10-20T15:17:31.083Z,68.90
2022-10-20T15:19:52.617Z,68.33
2022-10-20T15:24:40.557Z,71.53
2022-10-20T15:27:03.053Z,72.15
2022-10-20T15:29:25.474Z,71.50
2022-10-20T15:31:47.011Z,73.07
2022-10-20T15:34:09.700Z,73.68
2022-10-20T15:36:33.977Z,73.97
2022-10-20T15:38:56.572Z,73.03
2022-10-20T15:41:25.334Z,72.55
2022-10-20T15:43:47.250Z,72.60
2022-10-20T15:46:11.414Z,73.92
2022-10-20T15:48:32.936Z,74.81
2022-10-20T15:50:55.628Z,75.88
2022-10-20T15:53:18.471Z,77.37
2022-10-20T15:55:42.694Z,78.70
2022-10-20T15:58:04.440Z,80.49
2022-10-20T16:00:27.993Z,82.13
2022-10-20T16:02:50.142Z,81.97
2022-10-20T16:05:12.210Z,82.01
2022-10-20T16:07:33.878Z,82.35
2022-10-20T16:09:55.556Z,82.39
2022-10-20T16:12:17.473Z,82.04
2022-10-20T16:14:39.057Z,82.41
2022-10-20T16:17:00.564Z,83.28
2022-10-20T16:19:22.063Z,83.88
2022-10-20T16:21:43.618Z,84.14
2022-10-20T16:24:05.278Z,84.09
2022-10-20T16:26:27.210Z,84.28
2022-10-20T16:28:48.798Z,84.97
2022-10-20T16:31:12.325Z,85.92
2022-10-20T16:33:34.705Z,86.98
2022-10-20T16:35:56.278Z,86.64
2022-10-20T16:38:17.758Z,87.36
2022-10-20T16:40:39.251Z,88.48
2022-10-20T16:43:01.203Z,88.20
2022-10-20T16:47:45.145Z,87.74
2022-10-20T16:50:07.751Z,88.63
2022-10-20T16:52:29.258Z,88.79
2022-10-20T16:54:50.763Z,88.41
2022-10-20T16:57:12.915Z,87.46
2022-10-20T16:59:34.460Z,87.61
2022-10-20T17:01:55.932Z,87.64
2022-10-20T17:04:17.450Z,87.33
2022-10-20T17:06:38.978Z,87.75
2022-10-20T17:09:00.597Z,88.08
2022-10-20T17:11:24.888Z,86.84
2022-10-20T17:13:46.397Z,87.05
2022-10-20T17:16:13.673Z,86.49
2022-10-20T17:18:35.672Z,85.34
2022-10-20T17:20:57.209Z,85.82
2022-10-20T17:23:18.717Z,85.22
2022-10-20T17:25:40.295Z,85.67
2022-10-20T17:28:01.789Z,85.80
2022-10-20T17:30:23.301Z,86.24
2022-10-20T17:32:44.824Z,85.97
2022-10-20T17:35:06.830Z,85.74
2022-10-20T17:37:28.350Z,86.12
2022-10-20T17:39:49.864Z,88.55
2022-10-20T17:42:11.440Z,86.52
2022-10-20T17:44:32.952Z,85.63
2022-10-20T17:46:54.435Z,85.68
2022-10-20T17:49:15.925Z,85.82
2022-10-20T17:51:37.569Z,85.56
2022-10-20T17:53:59.099Z,85.35
2022-10-20T17:56:23.452Z,85.55
2022-10-20T17:58:47.132Z,85.77
2022-10-20T18:01:17.299Z,85.40
2022-10-20T18:03:39.828Z,86.97
2022-10-20T18:06:12.097Z,86.75
2022-10-20T18:08:33.710Z,86.33
2022-10-20T18:10:55.246Z,87.47
2022-10-20T18:13:16.792Z,87.92
2022-10-20T18:15:43.061Z,88.11
2022-10-20T18:18:04.618Z,87.89
2022-10-20T18:20:30.859Z,87.24
2022-10-20T18:22:53.865Z,88.38
2022-10-20T18:25:15.461Z,89.16
2022-10-20T18:27:36.916Z,89.94
2022-10-20T18:29:58.434Z,89.44
2022-10-20T18:32:19.906Z,88.52
2022-10-20T18:34:43.459Z,88.52
2022-10-20T18:37:05.030Z,88.31
2022-10-20T18:39:26.728Z,88.07
2022-10-20T18:41:51.749Z,87.80
2022-10-20T18:44:15.681Z,87.83
2022-10-20T18:46:38.066Z,90.15
2022-10-20T18:49:01.297Z,91.10
2022-10-20T18:51:23.083Z,91.23
2022-10-20T18:53:46.172Z,90.10
2022-10-20T18:56:12.294Z,91.52
2022-10-20T18:58:38.245Z,91.67
2022-10-20T19:01:01.905Z,91.56
2022-10-20T19:03:23.544Z,92.57
2022-10-20T19:05:45.992Z,92.06
2022-10-20T19:08:07.624Z,93.91
2022-10-20T19:10:29.150Z,96.48
2022-10-20T19:12:50.638Z,97.37
2022-10-20T19:15:12.185Z,98.30
2022-10-20T19:17:33.726Z,99.26
2022-10-20T19:19:55.310Z,99.93
2022-10-20T19:22:17.432Z,100.00
2022-10-20T19:24:40.642Z,100.00
2022-10-20T19:27:25.227Z,100.00
2022-10-20T19:29:43.694Z,99.79
2022-10-20T19:32:06.812Z,100.00
2022-10-20T19:34:29.971Z,100.00
2022-10-20T19:36:51.609Z,100.00
2022-10-20T19:39:16.403Z,100.00
2022-10-20T19:41:38.077Z,100.00
2022-10-20T19:44:00.224Z,99.27
2022-10-20T19:46:22.479Z,99.02
2022-10-20T19:48:46.132Z,97.97
2022-10-20T19:51:11.154Z,97.30
2022-10-20T19:53:33.980Z,98.04
2022-10-20T19:55:55.468Z,97.96
2022-10-20T19:58:18.189Z,99.62
2022-10-20T20:00:44.149Z,99.78
2022-10-20T20:03:05.724Z,99.76
2022-10-20T20:05:27.193Z,99.91
2022-10-20T20:07:48.701Z,100.00
2022-10-20T20:10:10.443Z,100.00
2022-10-20T20:12:31.983Z,100.00
2022-10-20T20:14:53.810Z,100.00
2022-10-20T20:17:15.396Z,100.00
2022-10-20T20:19:36.898Z,100.00
2022-10-20T20:21:58.428Z,100.00
2022-10-20T20:24:19.944Z,100.00
2022-10-20T20:26:41.704Z,100.00
2022-10-20T20:29:04.133Z,100.00
2022-10-20T20:31:26.604Z,100.00
2022-10-20T20:33:48.367Z,100.00
2022-10-20T20:36:10.210Z,100.00
2022-10-20T20:38:34.366Z,100.00
2022-10-20T20:40:58.927Z,100.00
2022-10-20T20:43:20.611Z,100.00
2022-10-20T20:45:44.331Z,100.00
2022-10-20T20:48:06.182Z,100.00
2022-10-20T20:50:27.650Z,100.00
2022-10-20T20:52:49.602Z,100.00
2022-10-20T20:55:11.080Z,100.00
2022-10-20T20:57:32.569Z,100.00
2022-10-20T20:59:54.023Z,100.00
2022-10-20T21:02:16.636Z,100.00
2022-10-20T21:04:38.104Z,98.92
2022-10-20T21:07:03.133Z,98.95
2022-10-20T21:09:24.747Z,98.17
2022-10-20T21:11:46.220Z,97.73
2022-10-20T21:14:08.991Z,97.19
2022-10-20T21:16:36.034Z,96.08
2022-10-20T21:19:00.617Z,96.10
2022-10-20T21:21:26.963Z,96.15
2022-10-20T21:23:48.828Z,96.37
2022-10-20T21:26:11.852Z,96.66
2022-10-20T21:28:33.861Z,97.30
2022-10-20T21:30:57.457Z,97.22
2022-10-20T21:33:21.696Z,97.96
2022-10-20T21:35:43.178Z,98.46
2022-10-20T21:38:04.683Z,98.90
2022-10-20T21:40:26.169Z,97.82
2022-10-20T21:42:47.722Z,98.75
2022-10-20T21:45:09.519Z,98.88
2022-10-20T21:47:30.993Z,98.92
2022-10-20T21:49:52.440Z,99.17
2022-10-20T21:52:14.563Z,98.18
2022-10-20T21:54:36.036Z,98.45
2022-10-20T21:56:58.079Z,97.98
2022-10-20T21:59:24.088Z,97.58
2022-10-20T22:01:46.632Z,96.78
2022-10-20T22:04:08.075Z,95.53
2022-10-20T22:06:29.529Z,96.28
2022-10-20T22:08:53.644Z,95.90
2022-10-20T22:11:21.498Z,95.51
2022-10-20T22:13:43.202Z,96.05
2022-10-20T22:16:06.605Z,96.23
2022-10-20T22:18:28.456Z,96.44
2022-10-20T22:20:49.935Z,96.30
2022-10-20T22:23:11.435Z,97.24
2022-10-20T22:25:37.861Z,95.95
2022-10-20T22:27:59.325Z,96.07
2022-10-20T22:30:20.781Z,96.44
2022-10-20T22:32:42.335Z,95.48
2022-10-20T22:35:04.105Z,96.05
2022-10-20T22:37:25.639Z,96.26
2022-10-20T22:39:47.116Z,96.97
2022-10-20T22:42:09.370Z,97.86
2022-10-20T22:44:30.838Z,97.58
2022-10-20T22:46:52.329Z,97.65
2022-10-20T22:49:14.163Z,97.48
2022-10-20T22:51:35.649Z,96.75
2022-10-20T22:53:57.422Z,96.72
2022-10-20T22:56:21.350Z,95.97
2022-10-20T22:58:43.386Z,95.00
2022-10-20T23:01:10.497Z,96.02
2022-10-20T23:03:32.095Z,95.21
2022-10-20T23:05:53.565Z,96.27
2022-10-20T23:08:15.044Z,96.68
2022-10-20T23:10:36.489Z,96.50
2022-10-20T23:12:57.978Z,95.80
2022-10-20T23:15:19.434Z,96.65
2022-10-20T23:17:41.056Z,97.06
2022-10-20T23:20:02.629Z,97.12
2022-10-20T23:22:24.182Z,97.47
2022-10-20T23:24:46.420Z,97.70
2022-10-20T23:27:08.238Z,96.67
2022-10-20T23:29:29.695Z,96.72
2022-10-20T23:31:51.191Z,96.44
2022-10-20T23:34:12.726Z,97.41
2022-10-20T23:36:36.766Z,96.96
2022-10-20T23:39:00.527Z,97.79
2022-10-20T23:41:22.023Z,97.81
2022-10-20T23:43:43.591Z,98.35
2022-10-20T23:46:05.746Z,98.61
2022-10-20T23:48:27.645Z,97.81
2022-10-20T23:50:49.187Z,97.56
2022-10-20T23:53:11.261Z,98.16
2022-10-20T23:55:32.741Z,98.14
2022-10-20T23:57:54.287Z,97.40
